METAR AND TAF INFORMATION
METAR FOR LGBL
ADDS - METARS form results

(0435 UTC 19 March 2019)
Data provider http://aviationweather.gov/metar/data/
 
METAR text: LGBL 190420Z 30004KT CAVOK 06/02 Q1015
Conditions at: LGBL (NEA ANCHIALOS , GR) observed 0420 UTC 19 March 2019
Temperature: 6.0°C (43°F)
Dewpoint: 2.0°C (36°F) [RH = 75%]
Pressure (altimeter): 29.97 inches Hg (1015.0 mb)
Winds: from the WNW (300 degrees) at 5 MPH (4 knots; 2.1 m/s)
Visibility: 6 or more miles (10+ km)
Ceiling: ceiling and visibility are OK
Clouds: unknown
Weather: no significant weather observed at this time

METAR text: LGBL 190350Z 26005KT CAVOK 06/02 Q1015
Conditions at: LGBL (NEA ANCHIALOS , GR) observed 0350 UTC 19 March 2019
Temperature: 6.0°C (43°F)
Dewpoint: 2.0°C (36°F) [RH = 75%]
Pressure (altimeter): 29.97 inches Hg (1015.0 mb)
Winds: from the W (260 degrees) at 6 MPH (5 knots; 2.6 m/s)
Visibility: 6 or more miles (10+ km)
Ceiling: ceiling and visibility are OK
Clouds: unknown
Weather: no significant weather observed at this time

Forecast for: LGBL (NEA ANCHIALOS , GR)
Text: TAF LGBL 190200Z 1903/1912 29008KT 9999 FEW025
Forecast period: 0300 to 1000 UTC 19 March 2019
Forecast type: FROM: standard forecast or significant change
Winds: from the WNW (290 degrees) at 9 MPH (8 knots; 4.1 m/s)
Visibility: 6 or more miles 10+ km)
Ceiling: at least 12,000 feet AGL
Clouds: few clouds at 2500 feet AGL
Weather: no significant weather forecast for this period
Text: BECMG 1910/1912 11008KT
Forecast period: 1000 to 1200 UTC 19 March 2019
Forecast type: BECOMING: Conditions expected to become as follows by 1200 UTC 19 March 2019
Winds: from the ESE (110 degrees) at 9 MPH (8 knots; 4.1 m/s)
Visibility: 6 or more miles 10+ km)
Ceiling: at least 12,000 feet AGL
Clouds: few clouds at 2500 feet AGL
Weather: no significant weather forecast for this period

 AIRPORT MAP

 RUNWAY INFORMATION
Runway 08 Runway length 9052 ft Runway width 148 ft
Runway elevation 83 ft Runway displaced threshold 0 ft Runway heading 81
Runway 26 Runway length 9052 ft Runway width 148 ft
Runway elevation 19 ft Runway displaced threshold 0 ft Runway heading 261

 AIRPORT FREQUENCIES
Type APP Name ALMIROS AP Frequency 120.35 MHZ
Type TWR Name ALMIROS TW Frequency 122.1 MHZ

 AIRPORT NEAR NAVIGATION AIDS
Type VOR-DME Name Anchialos Frequency 110400 KHZ
Type TACAN Name Nea Anchialos Frequency 115600 KHZ
Type NDB Name Nea Anchialos Frequency 335 KHZ



Powered by Virtual Airlines Manager [v2.6.2]